createdAt,value
2024-03-05T00:00:11.350Z,101499.28
2024-03-05T00:02:42.730Z,101492.84
2024-03-05T00:05:10.100Z,101494.03
2024-03-05T00:07:39.240Z,101489.13
2024-03-05T00:10:06.629Z,101499.56
2024-03-05T00:12:34.576Z,101495.00
2024-03-05T00:15:01.555Z,101495.84
2024-03-05T00:17:28.058Z,101497.78
2024-03-05T00:19:54.998Z,101496.91
2024-03-05T00:22:21.740Z,101494.59
2024-03-05T00:24:48.277Z,101505.91
2024-03-05T00:27:17.963Z,101500.13
2024-03-05T00:29:44.464Z,101494.03
2024-03-05T00:32:11.029Z,101504.00
2024-03-05T00:34:37.586Z,101499.38
2024-03-05T00:37:04.044Z,101483.50
2024-03-05T00:39:30.496Z,101488.41
2024-03-05T00:41:56.949Z,101505.41
2024-03-05T00:44:23.453Z,101499.34
2024-03-05T00:46:50.026Z,101499.28
2024-03-05T00:49:16.606Z,101501.09
2024-03-05T00:51:43.086Z,101500.25
2024-03-05T00:54:11.026Z,101503.56
2024-03-05T00:56:38.350Z,101496.78
2024-03-05T00:59:04.841Z,101491.53
2024-03-05T01:01:31.462Z,101489.50
2024-03-05T01:03:59.212Z,101498.97
2024-03-05T01:06:25.678Z,101499.94
2024-03-05T01:08:52.175Z,101495.69
2024-03-05T01:11:18.972Z,101496.56
2024-03-05T01:13:45.505Z,101486.91
2024-03-05T01:16:12.174Z,101494.69
2024-03-05T01:18:38.781Z,101492.50
2024-03-05T01:21:07.241Z,101480.91
2024-03-05T01:23:34.421Z,101483.94
2024-03-05T01:26:01.369Z,101483.59
2024-03-05T01:28:31.026Z,101477.00
2024-03-05T01:31:00.028Z,101483.38
2024-03-05T01:33:26.832Z,101479.16
2024-03-05T01:35:54.048Z,101482.84
2024-03-05T01:38:21.900Z,101484.59
2024-03-05T01:40:48.594Z,101485.44
2024-03-05T01:43:16.396Z,101492.34
2024-03-05T01:45:44.021Z,101487.97
2024-03-05T01:48:13.082Z,101487.97
2024-03-05T01:50:39.835Z,101486.78
2024-03-05T01:53:10.530Z,101490.25
2024-03-05T01:55:40.113Z,101492.53
2024-03-05T01:58:10.227Z,101493.03
2024-03-05T02:00:37.831Z,101487.50
2024-03-05T02:03:06.143Z,101482.50
2024-03-05T02:05:33.960Z,101490.41
2024-03-05T02:08:03.038Z,101487.66
2024-03-05T02:10:30.039Z,101488.91
2024-03-05T02:12:56.558Z,101488.22
2024-03-05T02:15:23.044Z,101483.22
2024-03-05T02:17:49.855Z,101484.13
2024-03-05T02:20:16.505Z,101496.28
2024-03-05T02:22:43.513Z,101494.28
2024-03-05T02:25:11.270Z,101502.06
2024-03-05T02:27:39.327Z,101500.75
2024-03-05T02:30:11.836Z,101497.44
2024-03-05T02:32:43.054Z,101499.88
2024-03-05T02:35:10.632Z,101487.78
2024-03-05T02:37:41.237Z,101503.75
2024-03-05T02:40:09.700Z,101504.09
2024-03-05T02:42:41.223Z,101503.66
2024-03-05T02:45:08.738Z,101499.38
2024-03-05T02:47:37.327Z,101496.38
2024-03-05T02:50:04.838Z,101506.34
2024-03-05T02:52:32.265Z,101506.16
2024-03-05T02:54:59.264Z,101510.53
2024-03-05T02:57:26.119Z,101501.06
2024-03-05T02:59:52.857Z,101503.34
2024-03-05T03:02:21.381Z,101512.19
2024-03-05T03:04:48.840Z,101498.81
2024-03-05T03:07:15.419Z,101503.06
2024-03-05T03:09:46.196Z,101510.44
2024-03-05T03:12:12.688Z,101516.22
2024-03-05T03:14:44.602Z,101512.53
2024-03-05T03:17:11.712Z,101515.00
2024-03-05T03:19:38.199Z,101508.50
2024-03-05T03:22:05.370Z,101517.31
2024-03-05T03:24:31.829Z,101509.38
2024-03-05T03:26:58.338Z,101511.53
2024-03-05T03:29:24.822Z,101513.38
2024-03-05T03:31:51.328Z,101513.88
2024-03-05T03:34:18.007Z,101519.59
2024-03-05T03:36:45.289Z,101516.56
2024-03-05T03:39:24.867Z,101512.38
2024-03-05T03:41:55.953Z,101515.56
2024-03-05T03:44:23.470Z,101513.38
2024-03-05T03:46:50.564Z,101515.56
2024-03-05T03:49:21.498Z,101517.25
2024-03-05T03:51:48.643Z,101518.41
2024-03-05T03:54:15.157Z,101523.59
2024-03-05T03:56:41.863Z,101522.94
2024-03-05T03:59:08.863Z,101511.88
2024-03-05T04:01:36.256Z,101511.88
2024-03-05T04:04:03.954Z,101500.84
2024-03-05T04:06:31.923Z,101509.88
2024-03-05T04:08:58.532Z,101515.09
2024-03-05T04:11:25.015Z,101509.19
2024-03-05T04:13:51.620Z,101504.09
2024-03-05T04:16:18.137Z,101515.41
2024-03-05T04:18:46.796Z,101517.38
2024-03-05T04:21:13.791Z,101508.69
2024-03-05T04:23:40.983Z,101513.91
2024-03-05T04:26:14.418Z,101525.28
2024-03-05T04:28:49.915Z,101522.09
2024-03-05T04:31:18.629Z,101529.38
2024-03-05T04:33:49.051Z,101520.75
2024-03-05T04:36:16.380Z,101527.00
2024-03-05T04:38:44.573Z,101522.63
2024-03-05T04:41:12.326Z,101523.69
2024-03-05T04:43:44.845Z,101520.94
2024-03-05T04:46:14.516Z,101511.88
2024-03-05T04:48:40.980Z,101522.34
2024-03-05T04:51:09.670Z,101528.50
2024-03-05T04:53:37.290Z,101526.81
2024-03-05T04:56:04.519Z,101527.00
2024-03-05T04:58:31.130Z,101520.50
2024-03-05T05:00:57.774Z,101522.63
2024-03-05T05:03:24.686Z,101521.28
2024-03-05T05:05:51.329Z,101524.31
2024-03-05T05:08:20.323Z,101519.13
2024-03-05T05:10:48.962Z,101529.06
2024-03-05T05:13:15.501Z,101512.31
2024-03-05T05:15:42.106Z,101529.38
2024-03-05T05:18:08.922Z,101528.22
2024-03-05T05:20:35.475Z,101516.22
2024-03-05T05:23:01.967Z,101512.13
2024-03-05T05:25:29.398Z,101525.47
2024-03-05T05:27:55.895Z,101521.94
2024-03-05T05:30:24.529Z,101516.91
2024-03-05T05:32:51.127Z,101532.69
2024-03-05T05:35:18.231Z,101528.66
2024-03-05T05:37:45.790Z,101535.34
2024-03-05T05:40:14.950Z,101530.69
2024-03-05T05:42:42.676Z,101534.03
2024-03-05T05:45:13.211Z,101518.22
2024-03-05T05:47:43.555Z,101530.66
2024-03-05T05:50:20.021Z,101533.69
2024-03-05T05:52:49.558Z,101526.63
2024-03-05T05:55:20.765Z,101531.63
2024-03-05T05:57:52.817Z,101528.56
2024-03-05T06:00:26.020Z,101535.31
2024-03-05T06:02:56.217Z,101532.63
2024-03-05T06:05:32.653Z,101520.13
2024-03-05T06:08:00.874Z,101550.63
2024-03-05T06:10:28.749Z,101541.53
2024-03-05T06:12:55.739Z,101532.91
2024-03-05T06:15:22.234Z,101522.53
2024-03-05T06:17:49.250Z,101538.81
2024-03-05T06:20:15.980Z,101540.72
2024-03-05T06:22:45.643Z,101546.59
2024-03-05T06:25:17.008Z,101544.75
2024-03-05T06:27:43.491Z,101545.34
2024-03-05T06:30:16.474Z,101545.38
2024-03-05T06:32:44.561Z,101551.41
2024-03-05T06:35:12.202Z,101568.03
2024-03-05T06:37:45.690Z,101561.16
2024-03-05T06:40:13.990Z,101561.50
2024-03-05T06:42:42.365Z,101559.84
2024-03-05T06:45:15.962Z,101565.13
2024-03-05T06:48:04.398Z,101565.50
2024-03-05T06:50:38.399Z,101569.16
2024-03-05T06:53:24.262Z,101571.47
2024-03-05T06:56:09.143Z,101569.44
2024-03-05T06:58:36.861Z,101568.38
2024-03-05T07:01:09.362Z,101568.91
2024-03-05T07:03:37.139Z,101571.13
2024-03-05T07:06:11.276Z,101571.28
2024-03-05T07:08:42.113Z,101569.75
2024-03-05T07:11:10.784Z,101576.84
2024-03-05T07:13:40.051Z,101580.44
2024-03-05T07:16:10.455Z,101580.50
2024-03-05T07:18:37.390Z,101579.09
2024-03-05T07:21:04.897Z,101579.34
2024-03-05T07:23:31.890Z,101576.50
2024-03-05T07:25:59.194Z,101584.25
2024-03-05T07:28:29.080Z,101586.94
2024-03-05T07:30:55.561Z,101585.72
2024-03-05T07:33:22.919Z,101554.25
2024-03-05T07:35:49.661Z,101582.03
2024-03-05T07:38:16.613Z,101545.16
2024-03-05T07:40:43.843Z,101572.75
2024-03-05T07:43:10.449Z,101579.69
2024-03-05T07:45:36.917Z,101582.31
2024-03-05T07:48:03.957Z,101591.03
2024-03-05T07:50:30.694Z,101579.41
2024-03-05T07:52:58.743Z,101568.94
2024-03-05T07:55:31.977Z,101580.16
2024-03-05T07:58:02.351Z,101589.19
2024-03-05T08:00:28.901Z,101592.50
2024-03-05T08:02:55.809Z,101591.72
2024-03-05T08:05:23.430Z,101586.97
2024-03-05T08:08:06.142Z,101607.63
2024-03-05T08:10:35.289Z,101604.56
2024-03-05T08:13:03.121Z,101597.44
2024-03-05T08:15:29.647Z,101611.59
2024-03-05T08:17:57.620Z,101604.88
2024-03-05T08:20:27.015Z,101607.03
2024-03-05T08:22:54.860Z,101622.63
2024-03-05T08:25:22.313Z,101614.19
2024-03-05T08:27:59.453Z,101606.28
2024-03-05T08:30:32.325Z,101624.03
2024-03-05T08:32:58.941Z,101629.00
2024-03-05T08:35:30.463Z,101630.81
2024-03-05T08:37:58.225Z,101625.28
2024-03-05T08:40:25.315Z,101623.13
2024-03-05T08:42:55.337Z,101596.63
2024-03-05T08:45:23.733Z,101632.34
2024-03-05T08:47:51.844Z,101630.44
2024-03-05T08:50:18.769Z,101628.63
2024-03-05T08:52:45.692Z,101634.88
2024-03-05T08:55:14.153Z,101630.66
2024-03-05T08:57:41.493Z,101630.31
2024-03-05T09:00:17.397Z,101616.56
2024-03-05T09:02:54.235Z,101632.06
2024-03-05T09:05:21.148Z,101631.50
2024-03-05T09:07:47.783Z,101624.38
2024-03-05T09:10:18.724Z,101629.56
2024-03-05T09:12:45.358Z,101632.34
2024-03-05T09:15:13.340Z,101634.56
2024-03-05T09:17:39.882Z,101633.34
2024-03-05T09:20:15.868Z,101623.56
2024-03-05T09:22:45.942Z,101615.03
2024-03-05T09:25:14.073Z,101635.16
2024-03-05T09:27:46.401Z,101603.88
2024-03-05T09:30:16.175Z,101633.16
2024-03-05T09:32:44.601Z,101609.06
2024-03-05T09:35:14.039Z,101625.28
2024-03-05T09:37:41.266Z,101628.56
2024-03-05T09:40:08.322Z,101597.81
2024-03-05T09:42:38.030Z,101617.94
2024-03-05T09:45:07.615Z,101608.59
2024-03-05T09:47:39.344Z,101631.75
2024-03-05T09:50:08.772Z,101621.06
2024-03-05T09:52:35.832Z,101642.50
2024-03-05T09:55:03.130Z,101641.69
2024-03-05T09:57:33.554Z,101649.22
2024-03-05T10:00:00.035Z,101655.22
2024-03-05T10:02:29.763Z,101651.53
2024-03-05T10:04:58.861Z,101654.06
2024-03-05T10:07:26.914Z,101652.94
2024-03-05T10:10:12.317Z,101649.44
2024-03-05T10:12:44.767Z,101649.84
2024-03-05T10:15:18.789Z,101657.84
2024-03-05T10:17:47.004Z,101660.69
2024-03-05T10:20:34.302Z,101655.13
2024-03-05T10:23:04.354Z,101662.31
2024-03-05T10:25:34.018Z,101655.69
2024-03-05T10:28:01.248Z,101653.09
2024-03-05T10:30:35.393Z,101660.56
2024-03-05T10:33:08.993Z,101640.50
2024-03-05T10:35:37.873Z,101664.19
2024-03-05T10:38:13.858Z,101629.22
2024-03-05T10:40:45.380Z,101665.06
2024-03-05T10:43:16.881Z,101662.25
2024-03-05T10:45:45.783Z,101663.47
2024-03-05T10:48:15.383Z,101667.16
2024-03-05T10:50:44.949Z,101661.13
2024-03-05T10:53:13.926Z,101669.69
2024-03-05T10:55:44.270Z,101678.47
2024-03-05T10:58:31.112Z,101668.50
2024-03-05T11:00:59.127Z,101669.03
2024-03-05T11:03:42.812Z,101662.84
2024-03-05T11:06:10.436Z,101661.22
2024-03-05T11:08:37.968Z,101669.34
2024-03-05T11:11:08.569Z,101668.16
2024-03-05T11:13:39.556Z,101672.03
2024-03-05T11:16:07.689Z,101667.56
2024-03-05T11:18:36.582Z,101658.91
2024-03-05T11:21:10.563Z,101659.78
2024-03-05T11:23:41.595Z,101667.66
2024-03-05T11:26:09.253Z,101671.03
2024-03-05T11:28:37.871Z,101672.53
2024-03-05T11:31:21.824Z,101668.19
2024-03-05T11:34:04.699Z,101662.44
2024-03-05T11:36:34.991Z,101665.53
2024-03-05T11:39:10.223Z,101663.56
2024-03-05T11:41:43.144Z,101666.03
2024-03-05T11:44:12.802Z,101669.56
2024-03-05T11:46:49.796Z,101670.09
2024-03-05T11:49:18.062Z,101674.19
2024-03-05T11:51:46.293Z,101664.53
2024-03-05T11:54:14.730Z,101662.47
2024-03-05T11:56:44.444Z,101674.69
2024-03-05T11:59:13.205Z,101679.06
2024-03-05T12:01:42.441Z,101684.06
2024-03-05T12:04:12.389Z,101681.28
2024-03-05T12:06:40.637Z,101676.31
2024-03-05T12:09:19.958Z,101680.00
2024-03-05T12:12:07.015Z,101683.34
2024-03-05T12:14:35.584Z,101665.75
2024-03-05T12:17:05.168Z,101683.88
2024-03-05T12:19:33.243Z,101681.38
2024-03-05T12:22:01.106Z,101679.06
2024-03-05T12:24:31.425Z,101675.72
2024-03-05T12:26:59.317Z,101680.81
2024-03-05T12:29:41.199Z,101641.91
2024-03-05T12:32:09.978Z,101670.06
2024-03-05T12:34:36.656Z,101684.69
2024-03-05T12:37:05.339Z,101682.41
2024-03-05T12:39:31.802Z,101687.88
2024-03-05T12:42:05.710Z,101693.13
2024-03-05T12:44:33.569Z,101681.94
2024-03-05T12:47:28.396Z,101689.34
2024-03-05T12:49:56.419Z,101666.19
2024-03-05T12:52:24.336Z,101666.75
2024-03-05T12:55:01.923Z,101684.88
2024-03-05T12:57:30.397Z,101685.03
2024-03-05T13:00:06.797Z,101686.34
2024-03-05T13:02:33.745Z,101686.91
2024-03-05T13:05:00.908Z,101696.00
2024-03-05T13:07:28.039Z,101667.59
2024-03-05T13:10:00.379Z,101695.81
2024-03-05T13:12:27.768Z,101663.53
2024-03-05T13:14:54.264Z,101697.34
2024-03-05T13:17:20.723Z,101680.97
2024-03-05T13:19:47.390Z,101698.22
2024-03-05T13:22:14.545Z,101653.81
2024-03-05T13:24:41.472Z,101687.59
2024-03-05T13:27:08.309Z,101686.47
2024-03-05T13:29:36.659Z,101697.84
2024-03-05T13:32:03.353Z,101692.94
2024-03-05T13:34:29.855Z,101695.50
2024-03-05T13:36:56.604Z,101696.72
2024-03-05T13:39:23.940Z,101696.72
2024-03-05T13:41:54.463Z,101672.97
2024-03-05T13:44:23.544Z,101698.22
2024-03-05T13:46:53.970Z,101689.31
2024-03-05T13:49:22.061Z,101688.28
2024-03-05T13:51:49.343Z,101696.66
2024-03-05T13:54:15.964Z,101691.78
2024-03-05T13:56:44.210Z,101688.97
2024-03-05T13:59:13.738Z,101655.72
2024-03-05T14:01:42.375Z,101691.97
2024-03-05T14:04:11.299Z,101691.28
2024-03-05T14:06:42.236Z,101682.66
2024-03-05T14:09:10.444Z,101695.06
2024-03-05T14:11:37.755Z,101687.47
2024-03-05T14:14:04.860Z,101683.94
2024-03-05T14:16:32.532Z,101697.34
2024-03-05T14:18:59.883Z,101681.09
2024-03-05T14:21:26.967Z,101704.81
2024-03-05T14:23:53.470Z,101699.75
2024-03-05T14:26:21.014Z,101700.41
2024-03-05T14:28:47.565Z,101700.53
2024-03-05T14:31:14.112Z,101701.84
2024-03-05T14:33:40.827Z,101704.75
2024-03-05T14:36:07.834Z,101700.59
2024-03-05T14:38:35.090Z,101711.63
2024-03-05T14:41:01.758Z,101710.47
2024-03-05T14:43:28.585Z,101713.31
2024-03-05T14:45:55.722Z,101713.56
2024-03-05T14:48:22.392Z,101672.44
2024-03-05T14:50:49.502Z,101710.19
2024-03-05T14:53:16.041Z,101715.56
2024-03-05T14:55:42.692Z,101724.44
2024-03-05T14:58:09.206Z,101724.13
2024-03-05T15:00:37.428Z,101729.94
2024-03-05T15:03:04.176Z,101734.44
2024-03-05T15:05:30.996Z,101741.91
2024-03-05T15:07:57.816Z,101738.28
2024-03-05T15:10:29.498Z,101745.16
2024-03-05T15:12:56.797Z,101738.66
2024-03-05T15:15:24.842Z,101708.22
2024-03-05T15:17:51.722Z,101756.16
2024-03-05T15:20:19.091Z,101742.06
2024-03-05T15:22:51.526Z,101749.13
2024-03-05T15:25:21.230Z,101743.75
2024-03-05T15:27:53.231Z,101750.22
2024-03-05T15:30:30.377Z,101757.22
2024-03-05T15:32:58.866Z,101762.22
2024-03-05T15:35:29.291Z,101736.47
2024-03-05T15:37:59.845Z,101742.84
2024-03-05T15:40:27.400Z,101773.88
2024-03-05T15:42:56.246Z,101769.47
2024-03-05T15:45:28.510Z,101777.75
2024-03-05T15:47:55.271Z,101767.84
2024-03-05T15:50:30.424Z,101769.34
2024-03-05T15:53:00.772Z,101770.63
2024-03-05T15:55:31.174Z,101777.56
2024-03-05T15:58:02.075Z,101771.78
2024-03-05T16:00:36.989Z,101785.06
2024-03-05T16:03:05.839Z,101779.69
2024-03-05T16:05:46.311Z,101778.47
2024-03-05T16:08:21.661Z,101775.69
2024-03-05T16:10:49.582Z,101748.06
2024-03-05T16:13:17.293Z,101733.91
2024-03-05T16:15:46.780Z,101786.34
2024-03-05T16:18:16.681Z,101791.69
2024-03-05T16:20:43.286Z,101788.00
2024-03-05T16:23:11.123Z,101797.47
2024-03-05T16:25:41.885Z,101800.47
2024-03-05T16:28:14.939Z,101796.63
2024-03-05T16:30:43.361Z,101780.69
2024-03-05T16:33:10.499Z,101796.41
2024-03-05T16:35:37.619Z,101792.06
2024-03-05T16:38:05.148Z,101802.91
2024-03-05T16:40:36.741Z,101783.28
2024-03-05T16:43:05.793Z,101806.44
2024-03-05T16:45:32.721Z,101810.13
2024-03-05T16:48:01.062Z,101809.34
2024-03-05T16:50:29.114Z,101819.75
2024-03-05T16:52:59.942Z,101815.28
2024-03-05T16:55:28.460Z,101819.72
2024-03-05T16:57:57.699Z,101812.59
2024-03-05T17:00:28.910Z,101799.84
2024-03-05T17:02:56.828Z,101827.44
2024-03-05T17:05:24.854Z,101831.63
2024-03-05T17:07:59.746Z,101803.69
2024-03-05T17:10:28.117Z,101827.44
2024-03-05T17:12:56.942Z,101831.84
2024-03-05T17:15:26.797Z,101840.16
2024-03-05T17:18:00.126Z,101816.16
2024-03-05T17:20:32.420Z,101829.13
2024-03-05T17:22:59.164Z,101807.50
2024-03-05T17:25:28.685Z,101803.78
2024-03-05T17:27:55.281Z,101841.78
2024-03-05T17:30:21.917Z,101847.13
2024-03-05T17:32:48.886Z,101830.81
2024-03-05T17:35:18.604Z,101820.53
2024-03-05T17:37:46.219Z,101847.84
2024-03-05T17:40:15.677Z,101860.81
2024-03-05T17:42:43.518Z,101867.19
2024-03-05T17:45:11.631Z,101879.19
2024-03-05T17:47:40.102Z,101879.19
2024-03-05T17:50:13.204Z,101880.19
2024-03-05T17:52:40.771Z,101872.38
2024-03-05T17:55:08.965Z,101882.22
2024-03-05T17:57:47.829Z,101889.28
2024-03-05T18:00:27.509Z,101865.94
2024-03-05T18:02:59.858Z,101888.22
2024-03-05T18:05:27.907Z,101895.66
2024-03-05T18:07:55.502Z,101887.97
2024-03-05T18:10:27.084Z,101895.00
2024-03-05T18:12:53.862Z,101894.81
2024-03-05T18:15:21.584Z,101899.06
2024-03-05T18:17:49.990Z,101904.66
2024-03-05T18:20:17.722Z,101905.38
2024-03-05T18:22:45.718Z,101909.44
2024-03-05T18:25:20.867Z,101901.72
2024-03-05T18:27:49.692Z,101895.94
2024-03-05T18:30:19.960Z,101915.19
2024-03-05T18:32:49.662Z,101919.00
2024-03-05T18:35:18.700Z,101914.97
2024-03-05T18:37:46.849Z,101917.63
2024-03-05T18:40:14.606Z,101921.56
2024-03-05T18:42:46.685Z,101923.13
2024-03-05T18:45:16.712Z,101906.66
2024-03-05T18:47:54.488Z,101918.41
2024-03-05T18:50:29.024Z,101927.50
2024-03-05T18:52:58.221Z,101928.53
2024-03-05T18:55:28.378Z,101915.63
2024-03-05T18:57:54.971Z,101891.69
2024-03-05T19:00:21.558Z,101925.88
2024-03-05T19:02:51.754Z,101915.63
2024-03-05T19:05:19.973Z,101918.72
2024-03-05T19:07:48.789Z,101922.69
2024-03-05T19:10:19.652Z,101923.47
2024-03-05T19:12:47.615Z,101887.44
2024-03-05T19:15:14.897Z,101880.78
2024-03-05T19:17:42.207Z,101915.41
2024-03-05T19:20:11.089Z,101917.22
2024-03-05T19:22:39.607Z,101927.81
2024-03-05T19:25:11.617Z,101892.91
2024-03-05T19:27:42.737Z,101920.28
2024-03-05T19:30:17.078Z,101935.81
2024-03-05T19:32:44.341Z,101902.38
2024-03-05T19:35:12.319Z,101928.53
2024-03-05T19:37:41.825Z,101944.81
2024-03-05T19:40:09.387Z,101947.25
2024-03-05T19:42:35.924Z,101941.69
2024-03-05T19:45:02.523Z,101944.25
2024-03-05T19:47:33.808Z,101947.75
2024-03-05T19:50:06.139Z,101944.75
2024-03-05T19:52:34.204Z,101917.66
2024-03-05T19:55:00.747Z,101949.66
2024-03-05T19:57:27.284Z,101941.78
2024-03-05T19:59:56.370Z,101948.06
2024-03-05T20:02:24.077Z,101951.75
2024-03-05T20:04:50.973Z,101939.03
2024-03-05T20:07:17.479Z,101942.72
2024-03-05T20:09:45.456Z,101955.34
2024-03-05T20:12:13.038Z,101957.97
2024-03-05T20:14:39.545Z,101957.69
2024-03-05T20:17:08.481Z,101960.31
2024-03-05T20:19:40.294Z,101957.16
2024-03-05T20:22:08.620Z,101958.94
2024-03-05T20:24:36.058Z,101942.88
2024-03-05T20:27:03.632Z,101956.94
2024-03-05T20:29:31.013Z,101960.63
2024-03-05T20:32:01.849Z,101911.94
2024-03-05T20:34:28.595Z,101969.47
2024-03-05T20:36:55.501Z,101971.50
2024-03-05T20:39:22.066Z,101972.91
2024-03-05T20:41:48.643Z,101973.28
2024-03-05T20:44:15.838Z,101967.16
2024-03-05T20:46:43.072Z,101977.16
2024-03-05T20:49:15.324Z,101970.63
2024-03-05T20:51:41.810Z,101982.25
2024-03-05T20:54:08.823Z,101978.59
2024-03-05T20:56:35.380Z,101979.38
2024-03-05T20:59:01.926Z,101976.66
2024-03-05T21:01:30.482Z,101979.34
2024-03-05T21:03:57.148Z,101981.00
2024-03-05T21:06:23.671Z,101972.75
2024-03-05T21:08:50.219Z,101975.53
2024-03-05T21:11:17.679Z,101989.53
2024-03-05T21:13:44.230Z,101984.69
2024-03-05T21:16:11.495Z,101988.31
2024-03-05T21:18:38.192Z,101992.25
2024-03-05T21:21:05.858Z,101976.13
2024-03-05T21:23:34.822Z,101982.56
2024-03-05T21:26:14.053Z,101994.59
2024-03-05T21:28:51.936Z,101993.72
2024-03-05T21:31:19.082Z,101997.50
2024-03-05T21:33:45.816Z,101982.34
2024-03-05T21:36:12.409Z,102016.34
2024-03-05T21:38:39.000Z,102018.00
2024-03-05T21:41:09.777Z,102018.03
2024-03-05T21:43:36.422Z,102014.75
2024-03-05T21:46:05.125Z,101998.13
2024-03-05T21:48:31.845Z,102001.78
2024-03-05T21:51:06.289Z,102022.28
2024-03-05T21:53:36.902Z,102029.56
2024-03-05T21:56:03.717Z,102012.09
2024-03-05T21:58:30.333Z,102033.59
2024-03-05T22:00:56.922Z,102029.09
2024-03-05T22:03:23.444Z,102029.69
2024-03-05T22:05:49.995Z,102022.19
2024-03-05T22:08:16.684Z,102040.13
2024-03-05T22:10:43.202Z,102035.75
2024-03-05T22:13:09.750Z,102036.25
2024-03-05T22:15:36.272Z,102033.72
2024-03-05T22:18:02.908Z,102040.41
2024-03-05T22:20:29.410Z,102041.09
2024-03-05T22:22:55.927Z,102034.78
2024-03-05T22:25:22.539Z,102047.41
2024-03-05T22:27:49.092Z,102044.50
2024-03-05T22:30:15.650Z,102041.00
2024-03-05T22:32:42.149Z,102043.66
2024-03-05T22:35:11.299Z,102042.06
2024-03-05T22:37:41.325Z,102042.69
2024-03-05T22:40:09.226Z,102045.25
2024-03-05T22:42:36.053Z,102045.00
2024-03-05T22:45:04.062Z,102018.50
2024-03-05T22:47:30.721Z,102035.41
2024-03-05T22:49:58.058Z,102035.03
2024-03-05T22:52:24.760Z,102032.34
2024-03-05T22:54:51.312Z,102057.13
2024-03-05T22:57:17.882Z,102053.88
2024-03-05T22:59:44.376Z,102048.47
2024-03-05T23:02:10.852Z,102048.91
2024-03-05T23:04:37.355Z,102058.84
2024-03-05T23:07:03.891Z,102052.75
2024-03-05T23:09:30.365Z,102051.66
2024-03-05T23:11:57.046Z,102056.66
2024-03-05T23:14:23.590Z,102046.91
2024-03-05T23:16:51.542Z,102056.28
2024-03-05T23:19:18.839Z,102048.38
2024-03-05T23:21:45.356Z,102049.31
2024-03-05T23:24:11.933Z,102020.81
2024-03-05T23:26:38.454Z,102059.41
2024-03-05T23:29:05.166Z,102073.13
2024-03-05T23:31:31.734Z,102073.25
2024-03-05T23:33:58.276Z,102061.34
2024-03-05T23:36:24.751Z,102063.16
2024-03-05T23:38:51.355Z,102061.00
2024-03-05T23:41:28.437Z,102079.19
2024-03-05T23:43:58.733Z,102078.56
2024-03-05T23:46:25.216Z,102079.91
2024-03-05T23:48:51.678Z,102070.44
2024-03-05T23:51:18.656Z,102089.13
2024-03-05T23:53:45.207Z,102058.06
2024-03-05T23:56:12.181Z,102087.81
2024-03-05T23:58:41.588Z,102081.44
